Time;durP1;ratioP1;P1;durP2;ratioP2;P2;SDS_P1;SDS_P2;PMS_P1;PMS_P2;Temp;Humidity;BMP_temperature;BMP_pressure;BME280_temperature;BME280_humidity;BME280_pressure;Samples;Min_cycle;Max_cycle;Signal;HPM_P1;HPM_P2
2021/08/24 00:00:13;;;;;;;13.15;11.82;;;;;;;;;;5034356;28;20033;-76
2021/08/24 00:02:38;;;;;;;14.85;13.23;;;;;;;;;;5034479;28;20392;-75
2021/08/24 00:05:04;;;;;;;15.85;14.25;;;;;;;;;;5035071;28;20029;-75
2021/08/24 00:07:29;;;;;;;14.65;13.45;;;;;;;;;;5054692;28;20127;-75
2021/08/24 00:09:56;;;;;;;12.43;10.23;;;;;;;;;;5053408;28;20017;-75
2021/08/24 00:12:22;;;;;;;11.18;10.10;;;;;;;;;;5053728;28;20025;-75
2021/08/24 00:14:47;;;;;;;12.55;11.25;;;;;;;;;;5054331;28;20009;-75
2021/08/24 00:17:12;;;;;;;10.57;9.57;;;;;;;;;;5054217;28;20013;-75
2021/08/24 00:19:40;;;;;;;14.95;13.20;;;;;;;;;;5052218;28;20363;-75
2021/08/24 00:22:06;;;;;;;13.77;11.10;;;;;;;;;;5051965;28;20056;-75
2021/08/24 00:24:34;;;;;;;12.73;11.50;;;;;;;;;;5053924;28;20028;-75
2021/08/24 00:27:01;;;;;;;11.68;10.68;;;;;;;;;;5053911;28;20044;-75
2021/08/24 00:29:29;;;;;;;14.13;12.75;;;;;;;;;;5054121;28;20013;-75
2021/08/24 00:31:54;;;;;;;13.80;12.45;;;;;;;;;;5040355;28;20060;-75
2021/08/24 00:34:22;;;;;;;12.85;11.50;;;;;;;;;;5033014;28;20096;-75
2021/08/24 00:36:47;;;;;;;12.75;11.60;;;;;;;;;;5034064;28;20029;-75
2021/08/24 00:39:15;;;;;;;13.10;10.63;;;;;;;;;;5033838;28;20446;-75
2021/08/24 00:41:40;;;;;;;14.30;12.98;;;;;;;;;;5032934;28;20347;-75
2021/08/24 00:44:06;;;;;;;15.80;13.07;;;;;;;;;;5039224;28;20579;-75
2021/08/24 00:46:32;;;;;;;11.80;10.70;;;;;;;;;;5053690;28;20017;-75
2021/08/24 00:48:59;;;;;;;15.13;13.70;;;;;;;;;;5052705;28;20512;-75
2021/08/24 00:51:25;;;;;;;13.23;11.93;;;;;;;;;;5052745;28;20259;-75
2021/08/24 00:53:51;;;;;;;15.50;13.82;;;;;;;;;;5040199;28;20039;-74
2021/08/24 00:56:16;;;;;;;14.93;13.32;;;;;;;;;;5033514;28;20104;-74
2021/08/24 00:58:42;;;;;;;11.38;10.27;;;;;;;;;;5033786;28;20025;-76
2021/08/24 01:01:07;;;;;;;12.60;11.38;;;;;;;;;;5041187;28;20079;-76
2021/08/24 01:03:39;;;;;;;11.45;10.45;;;;;;;;;;5053541;28;20464;-74
2021/08/24 01:06:07;;;;;;;13.73;11.38;;;;;;;;;;5053578;28;20112;-74
2021/08/24 01:08:32;;;;;;;13.38;12.25;;;;;;;;;;5050301;28;20114;-74
2021/08/24 01:11:06;;;;;;;11.97;10.03;;;;;;;;;;5053169;28;20024;-74
2021/08/24 01:13:35;;;;;;;13.80;12.40;;;;;;;;;;5052286;28;20263;-74
2021/08/24 01:16:05;;;;;;;11.05;10.00;;;;;;;;;;5034740;28;20021;-76
2021/08/24 01:18:39;;;;;;;12.63;11.32;;;;;;;;;;5032962;28;20045;-75
2021/08/24 01:21:17;;;;;;;11.95;10.90;;;;;;;;;;5033914;28;20025;-75
2021/08/24 01:23:42;;;;;;;13.18;11.70;;;;;;;;;;5056031;28;20525;-75
2021/08/24 01:26:11;;;;;;;15.50;14.20;;;;;;;;;;5057428;28;20107;-76
2021/08/24 01:28:42;;;;;;;12.10;10.82;;;;;;;;;;5055791;28;20090;-76
2021/08/24 01:31:16;;;;;;;11.40;10.27;;;;;;;;;;5056303;28;20052;-76
2021/08/24 01:34:03;;;;;;;14.38;13.07;;;;;;;;;;5057135;28;20031;-75
2021/08/24 01:36:32;;;;;;;12.27;10.52;;;;;;;;;;5056656;28;20040;-75
2021/08/24 01:39:03;;;;;;;10.60;9.65;;;;;;;;;;5057115;28;20162;-75
2021/08/24 01:41:31;;;;;;;13.38;12.05;;;;;;;;;;5056508;28;20106;-75
2021/08/24 01:43:59;;;;;;;13.18;11.93;;;;;;;;;;5042725;28;20107;-75
2021/08/24 01:46:30;;;;;;;13.68;12.30;;;;;;;;;;5036926;28;20374;-75
2021/08/24 01:48:59;;;;;;;12.40;10.43;;;;;;;;;;5043521;28;20163;-75
2021/08/24 01:51:28;;;;;;;10.68;9.88;;;;;;;;;;5051978;28;20355;-75
2021/08/24 01:53:59;;;;;;;10.63;9.48;;;;;;;;;;5036163;28;20024;-75
2021/08/24 01:56:28;;;;;;;10.82;9.50;;;;;;;;;;5045434;28;20029;-75
2021/08/24 01:58:54;;;;;;;9.98;9.18;;;;;;;;;;5056721;28;20024;-76
2021/08/24 02:01:23;;;;;;;9.05;8.35;;;;;;;;;;5056794;28;20107;-75
2021/08/24 02:03:54;;;;;;;10.55;9.48;;;;;;;;;;5055102;28;20029;-75
2021/08/24 02:06:25;;;;;;;11.50;10.25;;;;;;;;;;5056473;28;20051;-74
2021/08/24 02:08:53;;;;;;;12.95;10.32;;;;;;;;;;5055878;28;20027;-75
2021/08/24 02:11:19;;;;;;;14.07;11.10;;;;;;;;;;5056419;28;20024;-74
2021/08/24 02:13:46;;;;;;;13.98;12.70;;;;;;;;;;5055860;28;20032;-76
2021/08/24 02:16:16;;;;;;;10.90;10.00;;;;;;;;;;5055436;28;20037;-75
2021/08/24 02:18:48;;;;;;;11.70;10.52;;;;;;;;;;5045275;28;20084;-76
2021/08/24 02:21:17;;;;;;;10.57;9.68;;;;;;;;;;5036222;28;20111;-77
2021/08/24 02:23:45;;;;;;;13.25;11.95;;;;;;;;;;5043164;28;20496;-75
2021/08/24 02:26:11;;;;;;;13.55;11.23;;;;;;;;;;5050869;28;20025;-75
2021/08/24 02:28:38;;;;;;;9.82;9.00;;;;;;;;;;5054450;28;20032;-74
2021/08/24 02:31:10;;;;;;;11.32;10.32;;;;;;;;;;5055729;28;20422;-74
2021/08/24 02:33:41;;;;;;;10.25;9.23;;;;;;;;;;5054545;28;20079;-74
2021/08/24 02:36:08;;;;;;;9.52;8.65;;;;;;;;;;5056563;28;20347;-76
2021/08/24 02:38:36;;;;;;;10.13;9.10;;;;;;;;;;5055509;28;20033;-77
2021/08/24 02:41:13;;;;;;;10.23;9.20;;;;;;;;;;5056018;28;20507;-76
2021/08/24 02:43:53;;;;;;;11.38;10.25;;;;;;;;;;5055270;28;20370;-75
2021/08/24 02:46:23;;;;;;;10.05;8.48;;;;;;;;;;5055664;28;20017;-73
2021/08/24 02:48:57;;;;;;;10.38;8.40;;;;;;;;;;5055260;28;20417;-74
2021/08/24 02:51:23;;;;;;;8.50;7.70;;;;;;;;;;5035909;28;20080;-74
2021/08/24 02:53:54;;;;;;;8.68;7.70;;;;;;;;;;5035751;28;20393;-74
2021/08/24 02:56:19;;;;;;;9.35;7.90;;;;;;;;;;5048701;28;20021;-76
2021/08/24 02:58:44;;;;;;;10.63;7.43;;;;;;;;;;5055774;28;20025;-76
2021/08/24 03:01:12;;;;;;;10.82;7.65;;;;;;;;;;5051168;28;20271;-75
2021/08/24 03:03:37;;;;;;;9.60;8.80;;;;;;;;;;5035643;28;20056;-75
2021/08/24 03:06:02;;;;;;;9.52;8.52;;;;;;;;;;5037447;28;20553;-75
2021/08/24 03:08:28;;;;;;;8.38;7.53;;;;;;;;;;5045850;28;20025;-75
2021/08/24 03:10:54;;;;;;;9.40;8.60;;;;;;;;;;5035477;28;20052;-75
2021/08/24 03:13:29;;;;;;;7.70;7.03;;;;;;;;;;5043313;28;20163;-74
2021/08/24 03:15:59;;;;;;;10.32;9.40;;;;;;;;;;5055384;28;20032;-74
2021/08/24 03:18:30;;;;;;;9.13;7.82;;;;;;;;;;5054902;28;20137;-75
2021/08/24 03:20:57;;;;;;;9.98;9.00;;;;;;;;;;5055249;28;20442;-75
2021/08/24 03:23:27;;;;;;;11.35;7.95;;;;;;;;;;5054418;28;20518;-75
2021/08/24 03:25:53;;;;;;;9.05;8.32;;;;;;;;;;5049286;28;20028;-76
2021/08/24 03:28:20;;;;;;;9.07;8.18;;;;;;;;;;5054658;28;20147;-75
2021/08/24 03:30:45;;;;;;;11.45;9.68;;;;;;;;;;5054749;28;20040;-74
2021/08/24 03:33:11;;;;;;;9.85;8.77;;;;;;;;;;5054340;28;20043;-75
2021/08/24 03:35:37;;;;;;;8.27;7.45;;;;;;;;;;5054639;28;20044;-76
2021/08/24 03:38:02;;;;;;;9.02;7.07;;;;;;;;;;5051569;28;20032;-76
2021/08/24 03:40:30;;;;;;;8.35;7.60;;;;;;;;;;5054137;28;20025;-75
2021/08/24 03:42:55;;;;;;;8.20;7.38;;;;;;;;;;5054185;28;20453;-74
2021/08/24 03:45:21;;;;;;;10.63;9.60;;;;;;;;;;5048170;28;20033;-74
2021/08/24 03:47:46;;;;;;;8.27;7.50;;;;;;;;;;5034600;28;20032;-75
2021/08/24 03:50:14;;;;;;;9.77;8.88;;;;;;;;;;5038285;28;20028;-75
2021/08/24 03:52:39;;;;;;;11.10;9.43;;;;;;;;;;5054504;28;20457;-74
2021/08/24 03:55:05;;;;;;;8.13;7.43;;;;;;;;;;5051746;28;20017;-73
2021/08/24 03:57:30;;;;;;;8.82;8.02;;;;;;;;;;5034138;28;20082;-73
2021/08/24 03:59:56;;;;;;;7.75;7.05;;;;;;;;;;5034609;28;20037;-75
2021/08/24 04:02:21;;;;;;;11.80;7.15;;;;;;;;;;5034188;28;20036;-74
2021/08/24 04:04:46;;;;;;;7.93;7.30;;;;;;;;;;5034373;28;20024;-74
2021/08/24 04:07:11;;;;;;;12.48;9.55;;;;;;;;;;5050116;28;20020;-74
2021/08/24 04:09:37;;;;;;;9.33;6.90;;;;;;;;;;5053448;28;20053;-74
2021/08/24 04:12:02;;;;;;;8.93;6.72;;;;;;;;;;5053992;28;20289;-74
2021/08/24 04:14:27;;;;;;;10.07;9.18;;;;;;;;;;5053209;28;20033;-75
2021/08/24 04:16:53;;;;;;;8.35;7.65;;;;;;;;;;5054265;28;20052;-75
2021/08/24 04:19:20;;;;;;;8.88;7.07;;;;;;;;;;5040097;28;20049;-75
2021/08/24 04:21:45;;;;;;;7.90;7.30;;;;;;;;;;5034115;28;20036;-75
2021/08/24 04:24:13;;;;;;;7.75;6.47;;;;;;;;;;5034192;28;20025;-75
2021/08/24 04:26:40;;;;;;;7.32;6.65;;;;;;;;;;5034013;28;20064;-76
2021/08/24 04:29:06;;;;;;;9.15;7.53;;;;;;;;;;5034137;28;20029;-76
2021/08/24 04:31:35;;;;;;;7.95;7.15;;;;;;;;;;5033840;28;20045;-75
2021/08/24 04:34:00;;;;;;;11.85;8.43;;;;;;;;;;5034194;28;20112;-75
2021/08/24 04:36:25;;;;;;;7.90;7.10;;;;;;;;;;5041073;28;20113;-76
2021/08/24 04:38:53;;;;;;;9.10;8.18;;;;;;;;;;5053652;28;20262;-76
2021/08/24 04:41:18;;;;;;;10.90;8.13;;;;;;;;;;5046429;28;20450;-76
2021/08/24 04:43:43;;;;;;;7.38;6.40;;;;;;;;;;5044781;28;20071;-70
2021/08/24 04:46:11;;;;;;;10.50;7.50;;;;;;;;;;5053314;28;20104;-70
2021/08/24 04:48:36;;;;;;;8.45;7.75;;;;;;;;;;5048273;28;20283;-70
2021/08/24 04:51:01;;;;;;;8.45;7.43;;;;;;;;;;5052741;28;20090;-69
2021/08/24 04:53:29;;;;;;;14.20;8.50;;;;;;;;;;5053059;28;20096;-69
2021/08/24 04:55:55;;;;;;;9.88;8.88;;;;;;;;;;5050324;28;20031;-71
2021/08/24 04:58:20;;;;;;;11.90;10.13;;;;;;;;;;5047536;28;20025;-71
2021/08/24 05:00:46;;;;;;;9.82;9.05;;;;;;;;;;5050543;28;20013;-70
2021/08/24 05:03:11;;;;;;;10.82;9.40;;;;;;;;;;5051450;28;20025;-70
2021/08/24 05:05:36;;;;;;;16.35;10.65;;;;;;;;;;5043023;28;20024;-69
2021/08/24 05:08:02;;;;;;;11.83;10.57;;;;;;;;;;5048311;28;20022;-70
2021/08/24 05:10:28;;;;;;;11.68;9.57;;;;;;;;;;5033508;28;20271;-70
2021/08/24 05:12:53;;;;;;;13.50;8.77;;;;;;;;;;5033266;28;20033;-71
2021/08/24 05:15:19;;;;;;;13.23;11.02;;;;;;;;;;5048824;28;20501;-71
2021/08/24 05:17:47;;;;;;;13.70;11.07;;;;;;;;;;5053063;28;20028;-70
2021/08/24 05:20:12;;;;;;;13.80;12.05;;;;;;;;;;5053252;28;20091;-70
2021/08/24 05:22:37;;;;;;;15.88;11.68;;;;;;;;;;5053098;28;20029;-71
2021/08/24 05:25:02;;;;;;;13.18;11.82;;;;;;;;;;5052650;28;20327;-70
2021/08/24 05:27:27;;;;;;;16.98;11.25;;;;;;;;;;5052484;28;20036;-71
2021/08/24 05:29:55;;;;;;;13.07;10.20;;;;;;;;;;5052850;28;20009;-69
2021/08/24 05:32:20;;;;;;;12.88;10.23;;;;;;;;;;5051145;28;20355;-70
2021/08/24 05:34:45;;;;;;;11.50;10.30;;;;;;;;;;5052723;28;20204;-71
2021/08/24 05:37:11;;;;;;;16.20;10.55;;;;;;;;;;5051612;28;20740;-70
2021/08/24 05:39:36;;;;;;;11.80;8.13;;;;;;;;;;5052142;28;20509;-70
2021/08/24 05:42:02;;;;;;;14.02;8.93;;;;;;;;;;5052164;28;20362;-70
2021/08/24 05:44:27;;;;;;;10.52;8.40;;;;;;;;;;5052393;28;20016;-70
2021/08/24 05:46:52;;;;;;;13.80;8.93;;;;;;;;;;5052785;28;20047;-69
2021/08/24 05:49:17;;;;;;;15.23;10.40;;;;;;;;;;5038293;28;20310;-70
2021/08/24 05:51:43;;;;;;;9.63;7.80;;;;;;;;;;5052346;28;20017;-69
2021/08/24 05:54:08;;;;;;;9.98;8.10;;;;;;;;;;5052914;28;20267;-69
2021/08/24 05:56:33;;;;;;;12.95;9.32;;;;;;;;;;5052801;28;20102;-70
2021/08/24 05:58:59;;;;;;;11.57;9.27;;;;;;;;;;5051175;28;20025;-70
2021/08/24 06:01:28;;;;;;;12.48;9.25;;;;;;;;;;5055006;28;20017;-70
2021/08/24 06:03:54;;;;;;;10.60;9.48;;;;;;;;;;5056690;28;20019;-68
2021/08/24 06:06:26;;;;;;;10.25;9.25;;;;;;;;;;5051432;28;20476;-68
2021/08/24 06:08:52;;;;;;;16.08;8.63;;;;;;;;;;5050652;28;20101;-70
2021/08/24 06:11:22;;;;;;;12.27;9.00;;;;;;;;;;5056266;28;20438;-69
2021/08/24 06:13:48;;;;;;;7.72;6.47;;;;;;;;;;5060490;28;20029;-69
2021/08/24 06:16:15;;;;;;;9.35;7.60;;;;;;;;;;5056346;28;20094;-69
2021/08/24 06:18:41;;;;;;;7.60;6.68;;;;;;;;;;5055965;28;20029;-69
2021/08/24 06:21:06;;;;;;;7.60;6.85;;;;;;;;;;5056244;28;20032;-69
2021/08/24 06:23:31;;;;;;;8.98;6.60;;;;;;;;;;5058210;28;20024;-69
2021/08/24 06:25:59;;;;;;;8.57;7.57;;;;;;;;;;5066435;28;20107;-69
2021/08/24 06:28:24;;;;;;;8.63;7.82;;;;;;;;;;5055600;28;20349;-68
2021/08/24 06:30:51;;;;;;;7.18;6.53;;;;;;;;;;5072636;28;20085;-70
2021/08/24 06:33:18;;;;;;;7.10;6.38;;;;;;;;;;5055124;28;20074;-69
2021/08/24 06:35:43;;;;;;;6.70;6.05;;;;;;;;;;5064425;28;20035;-69
2021/08/24 06:38:08;;;;;;;6.87;6.27;;;;;;;;;;5070174;28;20072;-69
2021/08/24 06:40:34;;;;;;;7.65;6.55;;;;;;;;;;5057080;28;20755;-69
2021/08/24 06:43:00;;;;;;;10.32;6.00;;;;;;;;;;5053691;28;20021;-69
2021/08/24 06:45:27;;;;;;;7.32;4.93;;;;;;;;;;5059226;28;20017;-69
2021/08/24 06:47:53;;;;;;;8.63;6.68;;;;;;;;;;5055833;28;20417;-69
2021/08/24 06:50:21;;;;;;;8.23;5.65;;;;;;;;;;5058161;28;20032;-69
2021/08/24 06:52:46;;;;;;;7.25;5.80;;;;;;;;;;5067495;28;20036;-69
2021/08/24 06:55:12;;;;;;;7.88;5.75;;;;;;;;;;5070983;28;20483;-69
2021/08/24 06:57:38;;;;;;;8.15;6.32;;;;;;;;;;5054253;28;20056;-69
2021/08/24 07:00:04;;;;;;;6.80;4.95;;;;;;;;;;5065089;28;20103;-69
2021/08/24 07:02:31;;;;;;;6.57;5.07;;;;;;;;;;5058845;28;20039;-69
2021/08/24 07:05:01;;;;;;;6.53;4.93;;;;;;;;;;5070427;28;20017;-69
2021/08/24 07:07:26;;;;;;;6.20;5.60;;;;;;;;;;5059096;28;20032;-70
2021/08/24 07:09:52;;;;;;;6.30;5.72;;;;;;;;;;5053180;28;20029;-70
2021/08/24 07:12:17;;;;;;;5.30;4.75;;;;;;;;;;5054595;28;20045;-69
2021/08/24 07:14:42;;;;;;;6.80;5.32;;;;;;;;;;5055607;28;20082;-69
2021/08/24 07:17:07;;;;;;;8.40;5.70;;;;;;;;;;5055712;28;20028;-70
2021/08/24 07:19:32;;;;;;;6.95;5.30;;;;;;;;;;5053703;28;20279;-70
2021/08/24 07:21:58;;;;;;;5.68;5.25;;;;;;;;;;5055360;28;20020;-70
2021/08/24 07:24:23;;;;;;;7.55;5.78;;;;;;;;;;5054650;28;20456;-70
2021/08/24 07:26:51;;;;;;;5.47;4.72;;;;;;;;;;5054283;28;20017;-69
2021/08/24 07:29:16;;;;;;;7.65;6.60;;;;;;;;;;5054043;28;20029;-69
2021/08/24 07:31:41;;;;;;;9.27;6.17;;;;;;;;;;5054242;28;20048;-69
2021/08/24 07:34:09;;;;;;;6.50;5.28;;;;;;;;;;5054227;28;20263;-69
2021/08/24 07:36:34;;;;;;;7.75;6.55;;;;;;;;;;5050940;28;20039;-69
2021/08/24 07:39:01;;;;;;;6.25;5.65;;;;;;;;;;5053647;28;20118;-71
2021/08/24 07:41:26;;;;;;;6.97;5.75;;;;;;;;;;5035004;28;20083;-71
2021/08/24 07:43:51;;;;;;;7.30;6.03;;;;;;;;;;5048229;28;20574;-70
2021/08/24 07:46:16;;;;;;;5.90;5.40;;;;;;;;;;5054183;28;20017;-69
2021/08/24 07:48:41;;;;;;;7.40;5.87;;;;;;;;;;5051452;28;20275;-71
2021/08/24 07:51:09;;;;;;;6.70;6.10;;;;;;;;;;5053796;28;20256;-71
2021/08/24 07:53:35;;;;;;;7.43;6.57;;;;;;;;;;5047251;28;20752;-71
2021/08/24 07:56:02;;;;;;;9.55;6.20;;;;;;;;;;5034159;28;20031;-70
2021/08/24 07:58:27;;;;;;;6.97;5.57;;;;;;;;;;5038737;28;20047;-71
2021/08/24 08:00:52;;;;;;;7.95;5.90;;;;;;;;;;5054190;28;20090;-71
2021/08/24 08:03:20;;;;;;;9.20;5.72;;;;;;;;;;5047853;28;20029;-71
2021/08/24 08:05:45;;;;;;;6.82;6.18;;;;;;;;;;5033990;28;20021;-70
2021/08/24 08:08:13;;;;;;;6.22;5.63;;;;;;;;;;5039600;28;20425;-70
2021/08/24 08:10:38;;;;;;;7.68;5.93;;;;;;;;;;5049284;28;20061;-71
2021/08/24 08:13:03;;;;;;;6.18;5.28;;;;;;;;;;5036847;28;20503;-70
2021/08/24 08:15:32;;;;;;;7.10;5.22;;;;;;;;;;5046339;28;20132;-71
2021/08/24 08:18:02;;;;;;;6.97;5.60;;;;;;;;;;5042156;28;20024;-70
2021/08/24 08:20:28;;;;;;;5.80;5.20;;;;;;;;;;5054015;28;20025;-70
2021/08/24 08:22:54;;;;;;;7.35;5.50;;;;;;;;;;5053080;28;20472;-70
2021/08/24 08:25:19;;;;;;;5.93;5.43;;;;;;;;;;5053808;28;20339;-70
2021/08/24 08:27:44;;;;;;;7.45;5.60;;;;;;;;;;5054403;28;20247;-71
2021/08/24 08:30:10;;;;;;;7.90;6.20;;;;;;;;;;5053981;28;20021;-70
2021/08/24 08:32:39;;;;;;;6.10;5.25;;;;;;;;;;5051820;28;20277;-70
2021/08/24 08:35:07;;;;;;;5.18;4.70;;;;;;;;;;5053560;28;20109;-70
2021/08/24 08:37:32;;;;;;;6.60;5.60;;;;;;;;;;5051582;28;20441;-71
2021/08/24 08:39:57;;;;;;;9.03;4.57;;;;;;;;;;5044621;28;20023;-71
2021/08/24 08:42:30;;;;;;;6.23;5.63;;;;;;;;;;5053290;28;20350;-70
2021/08/24 08:45:11;;;;;;;5.65;4.93;;;;;;;;;;5052532;28;20345;-71
2021/08/24 08:47:53;;;;;;;5.15;4.65;;;;;;;;;;5040265;28;20025;-70
2021/08/24 08:50:25;;;;;;;6.38;4.30;;;;;;;;;;5038650;28;20025;-71
2021/08/24 08:52:58;;;;;;;5.75;4.70;;;;;;;;;;5033803;28;20036;-70
2021/08/24 08:55:29;;;;;;;5.05;4.65;;;;;;;;;;5044076;28;20025;-70
2021/08/24 08:57:57;;;;;;;6.82;4.10;;;;;;;;;;5053363;28;20068;-70
2021/08/24 09:00:25;;;;;;;6.68;5.10;;;;;;;;;;5046753;28;20446;-70
2021/08/24 09:02:59;;;;;;;5.97;5.07;;;;;;;;;;5033678;28;20029;-70
2021/08/24 09:05:25;;;;;;;5.32;4.82;;;;;;;;;;5032950;28;20024;-70
2021/08/24 09:07:55;;;;;;;5.97;4.72;;;;;;;;;;5034129;28;20053;-70
2021/08/24 09:10:28;;;;;;;4.50;4.10;;;;;;;;;;5049372;28;20024;-70
2021/08/24 09:13:15;;;;;;;5.43;4.22;;;;;;;;;;5051686;28;20098;-75
2021/08/24 09:15:40;;;;;;;;;;;;;;;;;;5053921;28;20020;-74
2021/08/24 09:18:09;;;;;;;6.53;4.40;;;;;;;;;;5053819;28;19908;-74
2021/08/24 09:20:37;;;;;;;5.68;4.85;;;;;;;;;;5053951;28;20075;-74
2021/08/24 09:23:05;;;;;;;5.63;4.70;;;;;;;;;;5052686;28;20032;-74
2021/08/24 09:25:56;;;;;;;6.13;5.53;;;;;;;;;;5053713;28;20049;-74
2021/08/24 09:28:24;;;;;;;6.25;4.50;;;;;;;;;;5053759;28;20032;-74
2021/08/24 09:30:50;;;;;;;5.38;4.85;;;;;;;;;;5053102;28;20052;-71
2021/08/24 09:33:16;;;;;;;6.00;5.50;;;;;;;;;;5052988;28;20028;-70
2021/08/24 09:35:43;;;;;;;6.45;4.45;;;;;;;;;;5053417;28;20499;-70
2021/08/24 09:38:13;;;;;;;5.93;4.40;;;;;;;;;;5052386;28;20079;-70
2021/08/24 09:40:46;;;;;;;6.00;5.50;;;;;;;;;;5052416;28;20032;-70
2021/08/24 09:43:19;;;;;;;4.93;4.47;;;;;;;;;;5055020;28;20064;-71
2021/08/24 09:45:44;;;;;;;5.95;4.90;;;;;;;;;;5056787;28;20025;-72
2021/08/24 09:48:09;;;;;;;6.05;4.70;;;;;;;;;;5057105;28;20449;-70
2021/08/24 09:50:37;;;;;;;5.00;4.57;;;;;;;;;;5057200;28;20021;-71
2021/08/24 09:53:03;;;;;;;5.35;4.82;;;;;;;;;;5056847;28;20023;-70
2021/08/24 09:55:29;;;;;;;5.22;4.72;;;;;;;;;;5057009;28;20060;-68
2021/08/24 09:58:03;;;;;;;7.65;5.60;;;;;;;;;;5054733;28;20032;-69
2021/08/24 10:00:37;;;;;;;9.93;5.28;;;;;;;;;;5056685;28;20087;-69
2021/08/24 10:03:18;;;;;;;6.07;4.95;;;;;;;;;;5056472;28;20024;-71
2021/08/24 10:05:45;;;;;;;4.80;4.40;;;;;;;;;;5056444;28;20025;-72
2021/08/24 10:08:22;;;;;;;5.35;4.85;;;;;;;;;;5056526;28;20021;-72
2021/08/24 10:11:00;;;;;;;4.90;4.50;;;;;;;;;;5056883;28;20370;-71
2021/08/24 10:13:30;;;;;;;4.95;4.32;;;;;;;;;;5055410;28;20100;-71
2021/08/24 10:16:06;;;;;;;5.90;5.30;;;;;;;;;;5052585;28;20073;-70
2021/08/24 10:18:33;;;;;;;4.95;4.55;;;;;;;;;;5056117;28;20025;-70
2021/08/24 10:21:01;;;;;;;5.50;5.05;;;;;;;;;;5054913;28;20032;-70
2021/08/24 10:23:34;;;;;;;5.03;4.53;;;;;;;;;;5038376;28;20360;-70
2021/08/24 10:26:00;;;;;;;11.75;4.97;;;;;;;;;;5047668;28;20013;-70
2021/08/24 10:28:48;;;;;;;8.27;5.28;;;;;;;;;;5055927;28;20020;-70
2021/08/24 10:31:19;;;;;;;4.95;4.45;;;;;;;;;;5041714;28;20377;-69
2021/08/24 10:33:58;;;;;;;6.78;5.40;;;;;;;;;;5052493;28;20024;-70
2021/08/24 10:36:28;;;;;;;6.28;5.78;;;;;;;;;;5051241;28;20467;-70
2021/08/24 10:38:57;;;;;;;5.50;5.00;;;;;;;;;;5054737;28;20029;-70
2021/08/24 10:41:27;;;;;;;5.50;5.00;;;;;;;;;;5052663;28;20456;-69
2021/08/24 10:43:54;;;;;;;6.90;3.90;;;;;;;;;;5053662;28;20487;-71
2021/08/24 10:46:20;;;;;;;6.68;3.75;;;;;;;;;;5052929;28;20154;-71
2021/08/24 10:48:46;;;;;;;3.65;3.22;;;;;;;;;;5055733;28;20447;-70
2021/08/24 10:51:19;;;;;;;5.25;3.60;;;;;;;;;;5054429;28;20472;-70
2021/08/24 10:53:53;;;;;;;3.55;3.00;;;;;;;;;;5034963;28;20021;-70
2021/08/24 10:56:23;;;;;;;3.20;2.80;;;;;;;;;;5047561;28;20029;-71
2021/08/24 10:58:55;;;;;;;2.60;2.40;;;;;;;;;;5055339;28;20577;-71
2021/08/24 11:01:28;;;;;;;3.13;2.63;;;;;;;;;;5054981;28;20029;-70
2021/08/24 11:03:54;;;;;;;2.55;2.35;;;;;;;;;;5055413;28;20067;-72
2021/08/24 11:06:35;;;;;;;3.80;2.40;;;;;;;;;;5054762;28;20399;-71
2021/08/24 11:09:29;;;;;;;2.40;2.00;;;;;;;;;;5067811;28;20103;-71
2021/08/24 11:11:57;;;;;;;2.45;2.20;;;;;;;;;;5075387;28;20044;-71
2021/08/24 11:14:45;;;;;;;4.88;2.45;;;;;;;;;;5059301;28;20360;-71
2021/08/24 11:17:13;;;;;;;3.97;2.20;;;;;;;;;;5051994;28;20445;-71
2021/08/24 11:19:39;;;;;;;4.53;2.45;;;;;;;;;;5039154;28;20033;-71
2021/08/24 11:22:09;;;;;;;3.20;2.40;;;;;;;;;;5047221;28;20107;-71
2021/08/24 11:24:52;;;;;;;5.68;2.58;;;;;;;;;;5049499;28;20036;-71
2021/08/24 11:27:33;;;;;;;2.65;2.13;;;;;;;;;;5049249;28;20025;-71
2021/08/24 11:30:03;;;;;;;2.58;2.22;;;;;;;;;;5045406;28;20100;-71
2021/08/24 11:32:31;;;;;;;3.60;3.15;;;;;;;;;;5049645;28;20353;-72
2021/08/24 11:35:11;;;;;;;4.00;2.20;;;;;;;;;;5054671;28;20092;-73
2021/08/24 11:37:45;;;;;;;3.05;2.08;;;;;;;;;;5052163;28;20496;-71
2021/08/24 11:40:10;;;;;;;;;;;;;;;;;;5050391;28;20025;-71
2021/08/24 11:42:40;;;;;;;3.70;2.53;;;;;;;;;;5053574;28;19915;-71
2021/08/24 11:45:07;;;;;;;3.78;2.20;;;;;;;;;;5053669;28;20449;-70
2021/08/24 11:47:37;;;;;;;2.78;2.15;;;;;;;;;;5055697;28;20044;-69
2021/08/24 11:50:11;;;;;;;3.80;2.30;;;;;;;;;;5071769;28;20017;-69
2021/08/24 11:52:55;;;;;;;6.20;5.78;;;;;;;;;;5056444;28;20341;-69
2021/08/24 11:55:26;;;;;;;2.67;1.65;;;;;;;;;;5048082;28;20094;-69
2021/08/24 11:58:10;;;;;;;2.53;2.15;;;;;;;;;;5050453;28;20070;-70
2021/08/24 12:00:40;;;;;;;2.85;2.00;;;;;;;;;;5040119;28;20074;-69
2021/08/24 12:03:08;;;;;;;2.78;2.22;;;;;;;;;;5054446;28;20024;-69
2021/08/24 12:05:46;;;;;;;1.98;1.73;;;;;;;;;;5057656;28;20096;-69
2021/08/24 12:08:26;;;;;;;2.75;1.90;;;;;;;;;;5052909;28;20964;-70
2021/08/24 12:10:51;;;;;;;1.88;1.77;;;;;;;;;;5050460;28;20468;-69
2021/08/24 12:13:25;;;;;;;2.00;1.80;;;;;;;;;;5053036;28;20025;-70
2021/08/24 12:15:52;;;;;;;;;;;;;;;;;;5069022;28;20078;-70
2021/08/24 12:18:17;;;;;;;2.42;2.22;;;;;;;;;;5054775;28;19905;-69
2021/08/24 12:20:45;;;;;;;3.77;2.43;;;;;;;;;;5058535;28;20518;-69
2021/08/24 12:23:15;;;;;;;3.13;2.20;;;;;;;;;;5064450;28;20076;-69
2021/08/24 12:25:42;;;;;;;2.85;2.42;;;;;;;;;;5050261;28;20098;-70
2021/08/24 12:28:28;;;;;;;2.28;2.08;;;;;;;;;;5070597;28;20040;-69
2021/08/24 12:30:56;;;;;;;4.03;2.30;;;;;;;;;;5060989;28;20040;-69
2021/08/24 12:33:34;;;;;;;2.28;2.08;;;;;;;;;;5060038;28;20028;-69
2021/08/24 12:36:21;;;;;;;3.53;2.00;;;;;;;;;;5070346;28;20016;-73
2021/08/24 12:38:51;;;;;;;5.55;2.35;;;;;;;;;;5046877;28;20079;-73
2021/08/24 12:41:31;;;;;;;3.13;2.50;;;;;;;;;;5050530;28;20025;-73
2021/08/24 12:44:15;;;;;;;5.30;2.30;;;;;;;;;;5053336;28;20348;-72
2021/08/24 12:46:45;;;;;;;2.85;2.65;;;;;;;;;;5047597;28;20386;-72
2021/08/24 12:49:10;;;;;;;3.38;2.40;;;;;;;;;;5051214;28;20068;-73
2021/08/24 12:51:42;;;;;;;4.40;2.63;;;;;;;;;;5053026;28;20027;-72
2021/08/24 12:54:08;;;;;;;4.68;2.85;;;;;;;;;;5048699;28;20033;-73
2021/08/24 12:56:35;;;;;;;3.15;2.33;;;;;;;;;;5050879;28;20025;-73
2021/08/24 12:59:02;;;;;;;3.92;2.30;;;;;;;;;;5052637;28;20031;-72
2021/08/24 13:01:27;;;;;;;4.47;2.33;;;;;;;;;;5052998;28;20021;-73
2021/08/24 13:04:28;;;;;;;2.92;2.33;;;;;;;;;;5038283;28;20105;-73
2021/08/24 13:07:13;;;;;;;2.67;2.20;;;;;;;;;;5011539;28;20037;-72
2021/08/24 13:09:38;;;;;;;;;;;;;;;;;;5030724;28;20396;-73
2021/08/24 13:12:03;;;;;;;;;;;;;;;;;;5037288;28;20245;-73
2021/08/24 13:14:49;;;;;;;3.03;2.40;;;;;;;;;;5043563;28;19920;-73
2021/08/24 13:17:19;;;;;;;2.92;2.55;;;;;;;;;;5052863;28;20032;-73
2021/08/24 13:19:52;;;;;;;3.15;2.38;;;;;;;;;;5057171;28;20456;-73
2021/08/24 13:22:35;;;;;;;5.95;2.50;;;;;;;;;;5046082;28;20033;-72
2021/08/24 13:25:01;;;;;;;2.90;2.60;;;;;;;;;;5037489;28;20330;-73
2021/08/24 13:27:28;;;;;;;3.28;2.70;;;;;;;;;;5047334;28;20021;-73
2021/08/24 13:29:54;;;;;;;2.78;2.47;;;;;;;;;;5057094;28;20046;-72
2021/08/24 13:32:37;;;;;;;5.20;2.78;;;;;;;;;;5056823;28;20029;-73
2021/08/24 13:35:03;;;;;;;2.72;2.53;;;;;;;;;;5057281;28;20092;-73
2021/08/24 13:37:31;;;;;;;4.32;2.30;;;;;;;;;;5056992;28;20032;-72
2021/08/24 13:40:04;;;;;;;8.00;2.40;;;;;;;;;;5056746;28;20416;-72
2021/08/24 13:42:30;;;;;;;3.00;2.30;;;;;;;;;;5055674;28;20036;-73
2021/08/24 13:44:55;;;;;;;4.60;2.40;;;;;;;;;;5055008;28;20021;-72
2021/08/24 13:47:22;;;;;;;3.60;2.30;;;;;;;;;;5056628;28;20056;-72
2021/08/24 13:49:52;;;;;;;4.78;2.10;;;;;;;;;;5056379;28;20154;-73
2021/08/24 13:52:34;;;;;;;2.80;2.17;;;;;;;;;;5050523;28;20036;-73
2021/08/24 13:55:00;;;;;;;5.50;2.45;;;;;;;;;;5051164;28;20020;-74
2021/08/24 13:57:26;;;;;;;3.83;2.60;;;;;;;;;;5056769;28;20323;-73
2021/08/24 14:00:03;;;;;;;4.32;2.55;;;;;;;;;;5057334;28;20035;-72
2021/08/24 14:02:39;;;;;;;3.80;2.58;;;;;;;;;;5044607;28;20350;-71
2021/08/24 14:05:04;;;;;;;2.78;2.50;;;;;;;;;;5056034;28;20056;-73
2021/08/24 14:07:31;;;;;;;6.25;2.65;;;;;;;;;;5056371;28;20051;-71
2021/08/24 14:10:02;;;;;;;3.55;2.70;;;;;;;;;;5054969;28;20025;-71
2021/08/24 14:12:32;;;;;;;5.30;2.80;;;;;;;;;;5056471;28;20345;-72
2021/08/24 14:15:03;;;;;;;3.65;2.55;;;;;;;;;;5053103;28;20036;-72
2021/08/24 14:17:28;;;;;;;3.72;3.10;;;;;;;;;;5056242;28;20368;-74
2021/08/24 14:19:57;;;;;;;9.00;2.43;;;;;;;;;;5056431;28;20009;-72
2021/08/24 14:22:23;;;;;;;5.53;2.72;;;;;;;;;;5053999;28;20271;-72
2021/08/24 14:24:49;;;;;;;3.95;2.60;;;;;;;;;;5052113;28;20392;-72
2021/08/24 14:27:16;;;;;;;5.28;2.90;;;;;;;;;;5052180;28;20165;-75
2021/08/24 14:29:41;;;;;;;4.97;3.00;;;;;;;;;;5049559;28;20039;-72
2021/08/24 14:32:11;;;;;;;3.92;2.78;;;;;;;;;;5050803;28;20044;-72
2021/08/24 14:34:38;;;;;;;3.33;2.95;;;;;;;;;;5055103;28;20369;-72
2021/08/24 14:37:06;;;;;;;4.25;2.80;;;;;;;;;;5054975;28;20036;-72
2021/08/24 14:39:38;;;;;;;4.45;3.03;;;;;;;;;;5054055;28;20068;-72
2021/08/24 14:42:04;;;;;;;4.15;3.08;;;;;;;;;;5055235;28;20071;-72
2021/08/24 14:44:33;;;;;;;6.03;3.25;;;;;;;;;;5054592;28;20116;-72
2021/08/24 14:47:00;;;;;;;5.38;2.90;;;;;;;;;;5053880;28;20024;-71